Terminal Aerodrome Forecast
Issued by NWS Quad Cities IA IL

Home | Current Version | Previous Version | Text Only | Print | Product List | Glossary On
Versions: 1 2 3 4 5 6 7 8 9 10 11 12 13 14 15 16 17 18 19 20 21 22 23 24 25 26 27 28
000
FTUS43 KDVN 180520
TAFMLI
TAF
KMLI 180520Z 1806/1906 02004KT 6SM BR OVC025
      TEMPO 1806/1808 3SM -DZ BR OVC012
     FM180800 02005KT 3SM -RADZ BR OVC009
     FM181100 35014KT 1SM -RA BR OVC006
     FM181500 33016G26KT 3/4SM -RASN BR OVC012
     FM181900 31017G27KT P6SM BKN025
     FM182200 30018G28KT P6SM SKC=

USA.gov is the U.S. government's official web portal to all federal, state and local government web resources and services.